sensor_id;sensor_type;location;lat;lon;timestamp;pressure;altitude;pressure_sealevel;temperature;humidity
73242;BME280;65659;49.234;-2.094;2024-03-08T00:01:54;99635.97;;;11.49;46.77
73242;BME280;65659;49.234;-2.094;2024-03-08T00:04:19;99636.44;;;11.49;46.75
73242;BME280;65659;49.234;-2.094;2024-03-08T00:06:44;99630.76;;;11.51;46.71
73242;BME280;65659;49.234;-2.094;2024-03-08T00:09:10;99631.82;;;12.02;46.64
73242;BME280;65659;49.234;-2.094;2024-03-08T00:11:35;99625.22;;;11.56;46.65
73242;BME280;65659;49.234;-2.094;2024-03-08T00:14:02;99618.95;;;11.48;46.72
73242;BME280;65659;49.234;-2.094;2024-03-08T00:16:26;99627.12;;;11.53;46.62
73242;BME280;65659;49.234;-2.094;2024-03-08T00:18:52;99624.52;;;11.77;46.67
73242;BME280;65659;49.234;-2.094;2024-03-08T00:21:18;99617.67;;;11.49;46.64
73242;BME280;65659;49.234;-2.094;2024-03-08T00:23:43;99617.01;;;12.02;46.55
73242;BME280;65659;49.234;-2.094;2024-03-08T00:26:09;99614.30;;;11.50;46.64
73242;BME280;65659;49.234;-2.094;2024-03-08T00:28:33;99611.04;;;11.73;46.64
73242;BME280;65659;49.234;-2.094;2024-03-08T00:30:59;99606.34;;;11.49;46.64
73242;BME280;65659;49.234;-2.094;2024-03-08T00:33:24;99600.32;;;11.39;46.64
73242;BME280;65659;49.234;-2.094;2024-03-08T00:35:50;99599.82;;;11.45;46.62
73242;BME280;65659;49.234;-2.094;2024-03-08T00:38:15;99595.15;;;11.40;46.63
73242;BME280;65659;49.234;-2.094;2024-03-08T00:40:41;99590.49;;;11.71;46.51
73242;BME280;65659;49.234;-2.094;2024-03-08T00:43:06;99585.40;;;11.43;46.61
73242;BME280;65659;49.234;-2.094;2024-03-08T00:45:32;99578.20;;;11.63;46.75
73242;BME280;65659;49.234;-2.094;2024-03-08T00:47:57;99569.43;;;11.61;46.73
73242;BME280;65659;49.234;-2.094;2024-03-08T00:50:22;99570.97;;;11.37;46.71
73242;BME280;65659;49.234;-2.094;2024-03-08T00:52:47;99569.23;;;11.64;46.52
73242;BME280;65659;49.234;-2.094;2024-03-08T00:55:13;99567.72;;;11.34;46.62
73242;BME280;65659;49.234;-2.094;2024-03-08T00:57:38;99561.50;;;11.57;46.62
73242;BME280;65659;49.234;-2.094;2024-03-08T01:00:04;99559.95;;;11.29;46.67
73242;BME280;65659;49.234;-2.094;2024-03-08T01:02:29;99556.15;;;11.21;46.72
73242;BME280;65659;49.234;-2.094;2024-03-08T01:04:54;99559.86;;;11.57;46.88
73242;BME280;65659;49.234;-2.094;2024-03-08T01:07:19;99558.48;;;11.34;46.90
73242;BME280;65659;49.234;-2.094;2024-03-08T01:09:45;99556.10;;;11.55;46.89
73242;BME280;65659;49.234;-2.094;2024-03-08T01:12:10;99559.96;;;11.02;47.00
73242;BME280;65659;49.234;-2.094;2024-03-08T01:14:35;99552.15;;;11.25;47.02
73242;BME280;65659;49.234;-2.094;2024-03-08T01:17:03;99542.19;;;10.93;47.12
73242;BME280;65659;49.234;-2.094;2024-03-08T01:19:26;99533.15;;;11.06;47.33
73242;BME280;65659;49.234;-2.094;2024-03-08T01:21:52;99526.75;;;10.85;47.27
73242;BME280;65659;49.234;-2.094;2024-03-08T01:24:17;99515.20;;;10.95;47.50
73242;BME280;65659;49.234;-2.094;2024-03-08T01:26:42;99506.91;;;11.19;47.53
73242;BME280;65659;49.234;-2.094;2024-03-08T01:29:07;99501.21;;;10.84;47.75
73242;BME280;65659;49.234;-2.094;2024-03-08T01:31:33;99494.97;;;11.06;47.82
73242;BME280;65659;49.234;-2.094;2024-03-08T01:33:58;99494.50;;;10.78;47.92
73242;BME280;65659;49.234;-2.094;2024-03-08T01:36:23;99488.50;;;10.99;47.99
73242;BME280;65659;49.234;-2.094;2024-03-08T01:38:48;99488.27;;;10.90;48.08
73242;BME280;65659;49.234;-2.094;2024-03-08T01:41:13;99484.77;;;10.93;48.04
73242;BME280;65659;49.234;-2.094;2024-03-08T01:43:39;99478.30;;;10.91;48.08
73242;BME280;65659;49.234;-2.094;2024-03-08T01:46:05;99472.87;;;10.37;48.25
73242;BME280;65659;49.234;-2.094;2024-03-08T01:48:30;99460.61;;;10.85;48.25
73242;BME280;65659;49.234;-2.094;2024-03-08T01:50:56;99450.13;;;10.83;48.24
73242;BME280;65659;49.234;-2.094;2024-03-08T01:53:21;99451.10;;;10.52;48.38
73242;BME280;65659;49.234;-2.094;2024-03-08T01:55:48;99438.60;;;10.75;48.35
73242;BME280;65659;49.234;-2.094;2024-03-08T01:58:12;99438.80;;;10.88;47.89
73242;BME280;65659;49.234;-2.094;2024-03-08T02:00:38;99435.22;;;10.73;48.20
73242;BME280;65659;49.234;-2.094;2024-03-08T02:03:03;99437.38;;;10.98;48.16
73242;BME280;65659;49.234;-2.094;2024-03-08T02:05:28;99442.09;;;10.77;48.11
73242;BME280;65659;49.234;-2.094;2024-03-08T02:07:53;99445.45;;;10.63;48.30
73242;BME280;65659;49.234;-2.094;2024-03-08T02:10:18;99442.03;;;10.36;48.38
73242;BME280;65659;49.234;-2.094;2024-03-08T02:12:45;99436.74;;;10.67;48.22
73242;BME280;65659;49.234;-2.094;2024-03-08T02:15:09;99435.51;;;10.66;48.18
73242;BME280;65659;49.234;-2.094;2024-03-08T02:17:34;99434.51;;;10.40;48.13
73242;BME280;65659;49.234;-2.094;2024-03-08T02:20:00;99425.85;;;10.54;48.18
73242;BME280;65659;49.234;-2.094;2024-03-08T02:22:25;99417.66;;;10.52;48.21
73242;BME280;65659;49.234;-2.094;2024-03-08T02:24:50;99416.76;;;10.42;48.36
73242;BME280;65659;49.234;-2.094;2024-03-08T02:27:23;99410.63;;;10.45;48.37
73242;BME280;65659;49.234;-2.094;2024-03-08T02:29:44;99405.75;;;10.42;48.37
73242;BME280;65659;49.234;-2.094;2024-03-08T02:32:07;99393.91;;;10.22;48.37
73242;BME280;65659;49.234;-2.094;2024-03-08T02:34:33;99393.42;;;10.37;48.42
73242;BME280;65659;49.234;-2.094;2024-03-08T02:36:59;99389.59;;;10.32;48.52
73242;BME280;65659;49.234;-2.094;2024-03-08T02:39:24;99391.74;;;10.26;48.31
73242;BME280;65659;49.234;-2.094;2024-03-08T02:41:49;99391.07;;;10.16;48.37
73242;BME280;65659;49.234;-2.094;2024-03-08T02:44:15;99376.27;;;10.19;48.30
73242;BME280;65659;49.234;-2.094;2024-03-08T02:46:40;99371.67;;;10.39;48.44
73242;BME280;65659;49.234;-2.094;2024-03-08T02:49:06;99365.05;;;10.20;48.30
73242;BME280;65659;49.234;-2.094;2024-03-08T02:51:31;99357.34;;;10.13;48.44
73242;BME280;65659;49.234;-2.094;2024-03-08T02:53:57;99356.19;;;10.18;48.38
73242;BME280;65659;49.234;-2.094;2024-03-08T02:56:23;99355.27;;;10.33;48.45
73242;BME280;65659;49.234;-2.094;2024-03-08T02:58:49;99354.79;;;10.06;48.48
73242;BME280;65659;49.234;-2.094;2024-03-08T03:01:14;99350.62;;;10.19;48.64
73242;BME280;65659;49.234;-2.094;2024-03-08T03:03:40;99350.22;;;10.19;48.55
73242;BME280;65659;49.234;-2.094;2024-03-08T03:06:05;99343.77;;;10.19;48.46
73242;BME280;65659;49.234;-2.094;2024-03-08T03:08:30;99341.73;;;10.10;48.65
73242;BME280;65659;49.234;-2.094;2024-03-08T03:10:55;99336.36;;;10.18;48.32
73242;BME280;65659;49.234;-2.094;2024-03-08T03:13:21;99332.44;;;10.23;48.23
73242;BME280;65659;49.234;-2.094;2024-03-08T03:15:47;99336.28;;;10.02;48.56
73242;BME280;65659;49.234;-2.094;2024-03-08T03:18:12;99331.06;;;10.13;48.33
73242;BME280;65659;49.234;-2.094;2024-03-08T03:20:37;99328.22;;;9.85;48.29
73242;BME280;65659;49.234;-2.094;2024-03-08T03:23:04;99327.13;;;10.19;48.45
73242;BME280;65659;49.234;-2.094;2024-03-08T03:25:28;99319.65;;;10.00;48.38
73242;BME280;65659;49.234;-2.094;2024-03-08T03:27:54;99313.60;;;10.02;48.30
73242;BME280;65659;49.234;-2.094;2024-03-08T03:30:19;99310.06;;;10.07;48.16
73242;BME280;65659;49.234;-2.094;2024-03-08T03:32:45;99310.54;;;9.95;48.28
73242;BME280;65659;49.234;-2.094;2024-03-08T03:35:10;99313.17;;;9.85;47.99
73242;BME280;65659;49.234;-2.094;2024-03-08T03:37:36;99307.38;;;9.93;48.13
73242;BME280;65659;49.234;-2.094;2024-03-08T03:40:02;99299.28;;;10.18;47.97
73242;BME280;65659;49.234;-2.094;2024-03-08T03:42:26;99296.50;;;9.73;47.81
73242;BME280;65659;49.234;-2.094;2024-03-08T03:44:51;99294.75;;;9.92;47.94
73242;BME280;65659;49.234;-2.094;2024-03-08T03:47:17;99292.74;;;9.87;48.02
73242;BME280;65659;49.234;-2.094;2024-03-08T03:49:42;99291.72;;;10.12;47.95
73242;BME280;65659;49.234;-2.094;2024-03-08T03:52:08;99289.56;;;10.08;47.99
73242;BME280;65659;49.234;-2.094;2024-03-08T03:54:33;99284.53;;;10.01;48.11
73242;BME280;65659;49.234;-2.094;2024-03-08T03:56:58;99285.90;;;9.82;48.00
73242;BME280;65659;49.234;-2.094;2024-03-08T03:59:23;99279.65;;;10.01;48.03
73242;BME280;65659;49.234;-2.094;2024-03-08T04:01:49;99277.07;;;9.77;47.97
73242;BME280;65659;49.234;-2.094;2024-03-08T04:04:14;99272.12;;;9.66;48.18
73242;BME280;65659;49.234;-2.094;2024-03-08T04:06:39;99275.27;;;9.96;48.07
73242;BME280;65659;49.234;-2.094;2024-03-08T04:09:04;99272.30;;;9.77;48.00
73242;BME280;65659;49.234;-2.094;2024-03-08T04:11:30;99270.45;;;9.79;47.93
73242;BME280;65659;49.234;-2.094;2024-03-08T04:13:56;99269.09;;;9.68;48.05
73242;BME280;65659;49.234;-2.094;2024-03-08T04:16:21;99265.76;;;9.62;48.04
73242;BME280;65659;49.234;-2.094;2024-03-08T04:18:47;99263.84;;;9.99;47.76
73242;BME280;65659;49.234;-2.094;2024-03-08T04:21:12;99263.12;;;9.55;47.95
73242;BME280;65659;49.234;-2.094;2024-03-08T04:23:37;99260.77;;;9.74;48.05
73242;BME280;65659;49.234;-2.094;2024-03-08T04:26:03;99258.39;;;9.52;48.02
73242;BME280;65659;49.234;-2.094;2024-03-08T04:28:29;99263.76;;;9.79;47.99
73242;BME280;65659;49.234;-2.094;2024-03-08T04:30:53;99262.38;;;9.76;48.02
73242;BME280;65659;49.234;-2.094;2024-03-08T04:33:19;99258.49;;;9.58;47.88
73242;BME280;65659;49.234;-2.094;2024-03-08T04:35:46;99260.91;;;9.55;47.98
73242;BME280;65659;49.234;-2.094;2024-03-08T04:38:10;99260.29;;;9.75;48.04
73242;BME280;65659;49.234;-2.094;2024-03-08T04:40:36;99262.77;;;9.77;48.03
73242;BME280;65659;49.234;-2.094;2024-03-08T04:43:02;99254.91;;;9.77;48.09
73242;BME280;65659;49.234;-2.094;2024-03-08T04:45:26;99251.18;;;9.44;48.19
73242;BME280;65659;49.234;-2.094;2024-03-08T04:47:52;99248.97;;;9.72;48.13
73242;BME280;65659;49.234;-2.094;2024-03-08T04:50:18;99246.15;;;9.73;47.98
73242;BME280;65659;49.234;-2.094;2024-03-08T04:52:43;99245.98;;;9.68;48.08
73242;BME280;65659;49.234;-2.094;2024-03-08T04:55:08;99249.93;;;9.66;48.13
73242;BME280;65659;49.234;-2.094;2024-03-08T04:57:33;99245.23;;;9.35;48.22
73242;BME280;65659;49.234;-2.094;2024-03-08T04:59:59;99239.49;;;9.64;48.07
73242;BME280;65659;49.234;-2.094;2024-03-08T05:02:24;99232.22;;;9.58;48.18
73242;BME280;65659;49.234;-2.094;2024-03-08T05:04:50;99229.38;;;9.56;48.09
73242;BME280;65659;49.234;-2.094;2024-03-08T05:07:16;99226.93;;;9.10;48.04
73242;BME280;65659;49.234;-2.094;2024-03-08T05:09:41;99224.44;;;9.63;47.96
73242;BME280;65659;49.234;-2.094;2024-03-08T05:12:07;99219.54;;;9.51;48.20
73242;BME280;65659;49.234;-2.094;2024-03-08T05:14:32;99220.40;;;9.52;48.17
73242;BME280;65659;49.234;-2.094;2024-03-08T05:16:58;99223.79;;;9.51;48.14
73242;BME280;65659;49.234;-2.094;2024-03-08T05:19:23;99220.70;;;9.48;48.12
73242;BME280;65659;49.234;-2.094;2024-03-08T05:21:49;99219.00;;;9.54;48.09
73242;BME280;65659;49.234;-2.094;2024-03-08T05:24:15;99212.84;;;9.54;48.11
73242;BME280;65659;49.234;-2.094;2024-03-08T05:26:40;99205.04;;;9.61;48.02
73242;BME280;65659;49.234;-2.094;2024-03-08T05:29:05;99205.34;;;9.38;47.99
73242;BME280;65659;49.234;-2.094;2024-03-08T05:31:31;99201.61;;;9.29;48.18
73242;BME280;65659;49.234;-2.094;2024-03-08T05:33:56;99203.67;;;9.35;48.07
73242;BME280;65659;49.234;-2.094;2024-03-08T05:36:21;99207.07;;;9.29;48.16
73242;BME280;65659;49.234;-2.094;2024-03-08T05:38:47;99210.61;;;9.26;48.21
73242;BME280;65659;49.234;-2.094;2024-03-08T05:41:12;99206.42;;;9.48;48.21
73242;BME280;65659;49.234;-2.094;2024-03-08T05:43:40;99208.47;;;9.77;48.08
73242;BME280;65659;49.234;-2.094;2024-03-08T05:46:04;99199.63;;;9.29;48.09
73242;BME280;65659;49.234;-2.094;2024-03-08T05:48:29;99195.08;;;9.49;48.15
73242;BME280;65659;49.234;-2.094;2024-03-08T05:50:55;99195.07;;;9.98;48.07
73242;BME280;65659;49.234;-2.094;2024-03-08T05:53:20;99190.28;;;9.52;47.87
73242;BME280;65659;49.234;-2.094;2024-03-08T05:55:45;99191.64;;;9.42;48.05
73242;BME280;65659;49.234;-2.094;2024-03-08T05:58:10;99187.77;;;9.47;47.96
73242;BME280;65659;49.234;-2.094;2024-03-08T06:00:35;99174.12;;;9.41;48.00
73242;BME280;65659;49.234;-2.094;2024-03-08T06:03:01;99170.40;;;9.38;48.05
73242;BME280;65659;49.234;-2.094;2024-03-08T06:05:26;99174.21;;;9.40;47.96
73242;BME280;65659;49.234;-2.094;2024-03-08T06:07:52;99176.25;;;9.51;47.81
73242;BME280;65659;49.234;-2.094;2024-03-08T06:10:18;99173.79;;;9.47;47.92
73242;BME280;65659;49.234;-2.094;2024-03-08T06:12:43;99173.61;;;9.51;47.81
73242;BME280;65659;49.234;-2.094;2024-03-08T06:15:09;99175.65;;;9.51;47.81
73242;BME280;65659;49.234;-2.094;2024-03-08T06:17:34;99180.37;;;9.53;47.73
73242;BME280;65659;49.234;-2.094;2024-03-08T06:19:59;99178.83;;;9.27;47.80
73242;BME280;65659;49.234;-2.094;2024-03-08T06:22:25;99174.36;;;9.20;47.75
73242;BME280;65659;49.234;-2.094;2024-03-08T06:24:51;99165.80;;;9.40;47.86
73242;BME280;65659;49.234;-2.094;2024-03-08T06:27:16;99160.81;;;9.59;47.67
73242;BME280;65659;49.234;-2.094;2024-03-08T06:29:42;99161.77;;;9.37;47.63
73242;BME280;65659;49.234;-2.094;2024-03-08T06:32:08;99152.62;;;9.33;47.68
73242;BME280;65659;49.234;-2.094;2024-03-08T06:34:33;99149.74;;;9.62;47.59
73242;BME280;65659;49.234;-2.094;2024-03-08T06:36:59;99147.84;;;9.53;47.68
73242;BME280;65659;49.234;-2.094;2024-03-08T06:39:24;99145.45;;;9.56;47.56
73242;BME280;65659;49.234;-2.094;2024-03-08T06:41:50;99139.00;;;9.59;47.54
73242;BME280;65659;49.234;-2.094;2024-03-08T06:44:15;99131.79;;;9.56;47.57
73242;BME280;65659;49.234;-2.094;2024-03-08T06:46:40;99129.35;;;9.55;47.58
73242;BME280;65659;49.234;-2.094;2024-03-08T06:49:05;99121.92;;;9.53;47.65
73242;BME280;65659;49.234;-2.094;2024-03-08T06:51:31;99119.72;;;9.58;47.64
73242;BME280;65659;49.234;-2.094;2024-03-08T06:53:56;99121.29;;;9.58;47.59
73242;BME280;65659;49.234;-2.094;2024-03-08T06:56:22;99122.20;;;9.52;47.73
73242;BME280;65659;49.234;-2.094;2024-03-08T06:58:47;99120.90;;;9.35;47.65
73242;BME280;65659;49.234;-2.094;2024-03-08T07:01:13;99117.19;;;9.67;47.52
73242;BME280;65659;49.234;-2.094;2024-03-08T07:03:38;99111.60;;;9.67;47.51
73242;BME280;65659;49.234;-2.094;2024-03-08T07:06:04;99109.27;;;9.54;47.28
73242;BME280;65659;49.234;-2.094;2024-03-08T07:08:29;99108.35;;;9.82;47.22
73242;BME280;65659;49.234;-2.094;2024-03-08T07:10:54;99102.76;;;9.52;47.38
73242;BME280;65659;49.234;-2.094;2024-03-08T07:13:20;99103.56;;;9.61;47.23
73242;BME280;65659;49.234;-2.094;2024-03-08T07:15:46;99107.28;;;9.54;47.26
73242;BME280;65659;49.234;-2.094;2024-03-08T07:18:11;99119.52;;;9.65;47.01
73242;BME280;65659;49.234;-2.094;2024-03-08T07:20:36;99132.58;;;9.70;46.95
73242;BME280;65659;49.234;-2.094;2024-03-08T07:23:03;99133.90;;;9.73;46.89
73242;BME280;65659;49.234;-2.094;2024-03-08T07:25:27;99131.86;;;9.46;46.88
73242;BME280;65659;49.234;-2.094;2024-03-08T07:27:54;99138.16;;;9.58;46.65
73242;BME280;65659;49.234;-2.094;2024-03-08T07:30:19;99135.09;;;9.61;46.64
73242;BME280;65659;49.234;-2.094;2024-03-08T07:32:43;99138.25;;;9.99;46.42
73242;BME280;65659;49.234;-2.094;2024-03-08T07:35:09;99131.70;;;9.91;46.23
73242;BME280;65659;49.234;-2.094;2024-03-08T07:37:47;99130.17;;;9.62;46.25
73242;BME280;65659;49.234;-2.094;2024-03-08T07:40:00;99128.12;;;9.81;46.06
73242;BME280;65659;49.234;-2.094;2024-03-08T07:42:26;99122.34;;;10.07;46.03
73242;BME280;65659;49.234;-2.094;2024-03-08T07:44:51;99115.51;;;10.10;46.07
73242;BME280;65659;49.234;-2.094;2024-03-08T07:47:17;99118.38;;;9.72;45.91
73242;BME280;65659;49.234;-2.094;2024-03-08T07:49:43;99121.57;;;9.99;45.84
73242;BME280;65659;49.234;-2.094;2024-03-08T07:52:09;99123.59;;;9.87;45.54
73242;BME280;65659;49.234;-2.094;2024-03-08T07:54:34;99125.24;;;9.86;45.48
73242;BME280;65659;49.234;-2.094;2024-03-08T07:57:00;99123.47;;;9.98;45.37
73242;BME280;65659;49.234;-2.094;2024-03-08T07:59:26;99120.81;;;10.04;45.20
73242;BME280;65659;49.234;-2.094;2024-03-08T08:01:51;99118.14;;;10.10;45.00
73242;BME280;65659;49.234;-2.094;2024-03-08T08:04:16;99117.86;;;10.05;44.66
73242;BME280;65659;49.234;-2.094;2024-03-08T08:06:42;99123.60;;;10.26;44.66
73242;BME280;65659;49.234;-2.094;2024-03-08T08:09:07;99124.68;;;9.88;44.61
73242;BME280;65659;49.234;-2.094;2024-03-08T08:11:33;99127.95;;;10.43;44.57
73242;BME280;65659;49.234;-2.094;2024-03-08T08:13:59;99132.21;;;10.25;44.47
73242;BME280;65659;49.234;-2.094;2024-03-08T08:16:24;99123.92;;;9.68;44.25
73242;BME280;65659;49.234;-2.094;2024-03-08T08:18:48;99128.35;;;10.33;43.46
73242;BME280;65659;49.234;-2.094;2024-03-08T08:21:13;99129.70;;;10.13;43.42
73242;BME280;65659;49.234;-2.094;2024-03-08T08:23:40;99115.63;;;10.97;43.27
73242;BME280;65659;49.234;-2.094;2024-03-08T08:26:09;99109.42;;;10.83;43.15
73242;BME280;65659;49.234;-2.094;2024-03-08T08:28:37;99115.81;;;10.58;42.89
73242;BME280;65659;49.234;-2.094;2024-03-08T08:31:21;99110.62;;;10.28;42.51
73242;BME280;65659;49.234;-2.094;2024-03-08T08:36:26;99110.29;;;10.93;41.81
73242;BME280;65659;49.234;-2.094;2024-03-08T08:40:55;99110.47;;;10.61;40.93
73242;BME280;65659;49.234;-2.094;2024-03-08T08:48:08;99101.37;;;10.77;40.78
73242;BME280;65659;49.234;-2.094;2024-03-08T09:00:00;99081.58;;;10.43;40.45
73242;BME280;65659;49.234;-2.094;2024-03-08T09:02:25;99076.21;;;10.84;39.81
73242;BME280;65659;49.234;-2.094;2024-03-08T09:04:51;99068.58;;;11.04;39.58
73242;BME280;65659;49.234;-2.094;2024-03-08T09:07:17;99062.80;;;11.26;39.28
73242;BME280;65659;49.234;-2.094;2024-03-08T09:09:44;99057.56;;;11.04;39.03
73242;BME280;65659;49.234;-2.094;2024-03-08T09:12:08;99060.06;;;10.96;38.82
73242;BME280;65659;49.234;-2.094;2024-03-08T09:14:41;99046.72;;;11.04;38.67
73242;BME280;65659;49.234;-2.094;2024-03-08T09:16:59;99039.66;;;11.33;38.54
73242;BME280;65659;49.234;-2.094;2024-03-08T09:19:25;99028.24;;;11.55;38.60
73242;BME280;65659;49.234;-2.094;2024-03-08T09:21:50;99028.13;;;11.03;38.65
73242;BME280;65659;49.234;-2.094;2024-03-08T09:24:15;99029.73;;;11.14;38.45
73242;BME280;65659;49.234;-2.094;2024-03-08T09:26:41;99033.47;;;11.18;38.37
73242;BME280;65659;49.234;-2.094;2024-03-08T09:29:05;99036.87;;;11.23;38.43
73242;BME280;65659;49.234;-2.094;2024-03-08T09:31:33;99031.92;;;11.29;38.40
73242;BME280;65659;49.234;-2.094;2024-03-08T09:33:58;99022.73;;;11.73;38.51
73242;BME280;65659;49.234;-2.094;2024-03-08T09:36:29;99018.50;;;11.20;38.64
73242;BME280;65659;49.234;-2.094;2024-03-08T09:38:48;99013.10;;;11.57;38.56
73242;BME280;65659;49.234;-2.094;2024-03-08T09:41:13;99016.33;;;11.57;38.61
73242;BME280;65659;49.234;-2.094;2024-03-08T09:43:38;99012.88;;;11.72;38.62
73242;BME280;65659;49.234;-2.094;2024-03-08T09:46:06;99006.82;;;11.48;38.46
73242;BME280;65659;49.234;-2.094;2024-03-08T09:48:29;99001.71;;;12.54;38.36
73242;BME280;65659;49.234;-2.094;2024-03-08T09:50:55;99003.29;;;11.87;38.25
73242;BME280;65659;49.234;-2.094;2024-03-08T09:53:21;99001.88;;;11.94;38.10
73242;BME280;65659;49.234;-2.094;2024-03-08T09:55:45;98998.03;;;11.93;38.05
73242;BME280;65659;49.234;-2.094;2024-03-08T09:58:12;98993.88;;;12.49;37.69
73242;BME280;65659;49.234;-2.094;2024-03-08T10:00:38;98990.70;;;12.55;37.63
73242;BME280;65659;49.234;-2.094;2024-03-08T10:03:05;98987.19;;;12.76;37.47
73242;BME280;65659;49.234;-2.094;2024-03-08T10:05:29;98983.92;;;12.69;37.28
73242;BME280;65659;49.234;-2.094;2024-03-08T10:07:52;98980.58;;;12.82;36.90
73242;BME280;65659;49.234;-2.094;2024-03-08T10:10:19;98979.52;;;13.33;36.68
73242;BME280;65659;49.234;-2.094;2024-03-08T10:12:43;98974.43;;;13.25;36.79
73242;BME280;65659;49.234;-2.094;2024-03-08T10:15:10;98981.10;;;13.38;36.75
73242;BME280;65659;49.234;-2.094;2024-03-08T10:17:35;98981.34;;;13.06;36.34
73242;BME280;65659;49.234;-2.094;2024-03-08T10:20:04;98982.69;;;13.26;36.06
73242;BME280;65659;49.234;-2.094;2024-03-08T10:22:26;98978.82;;;13.38;35.77
73242;BME280;65659;49.234;-2.094;2024-03-08T10:24:54;98971.48;;;13.91;35.47
73242;BME280;65659;49.234;-2.094;2024-03-08T10:27:24;98980.37;;;13.56;35.88
73242;BME280;65659;49.234;-2.094;2024-03-08T10:29:46;98978.57;;;13.08;35.63
73242;BME280;65659;49.234;-2.094;2024-03-08T10:32:06;98979.97;;;13.22;35.50
73242;BME280;65659;49.234;-2.094;2024-03-08T10:34:31;98977.69;;;13.54;35.53
73242;BME280;65659;49.234;-2.094;2024-03-08T10:37:01;98973.16;;;13.72;35.47
73242;BME280;65659;49.234;-2.094;2024-03-08T10:39:23;98967.36;;;13.78;35.21
73242;BME280;65659;49.234;-2.094;2024-03-08T10:41:52;98964.37;;;14.28;35.37
73242;BME280;65659;49.234;-2.094;2024-03-08T10:44:20;98956.22;;;13.52;35.47
73242;BME280;65659;49.234;-2.094;2024-03-08T10:46:49;98951.75;;;14.62;35.07
73242;BME280;65659;49.234;-2.094;2024-03-08T10:49:08;98951.16;;;14.08;35.17
73242;BME280;65659;49.234;-2.094;2024-03-08T10:51:31;98946.75;;;13.81;34.98
73242;BME280;65659;49.234;-2.094;2024-03-08T10:53:55;98944.47;;;13.99;34.84
73242;BME280;65659;49.234;-2.094;2024-03-08T10:56:19;98939.92;;;13.93;34.72
73242;BME280;65659;49.234;-2.094;2024-03-08T10:58:44;98931.70;;;14.27;34.67
73242;BME280;65659;49.234;-2.094;2024-03-08T11:01:15;98929.28;;;14.43;34.57
73242;BME280;65659;49.234;-2.094;2024-03-08T11:03:44;98928.67;;;15.26;34.90
73242;BME280;65659;49.234;-2.094;2024-03-08T11:06:00;98934.72;;;14.97;35.51
73242;BME280;65659;49.234;-2.094;2024-03-08T11:08:26;98927.31;;;14.41;36.10
73242;BME280;65659;49.234;-2.094;2024-03-08T11:10:52;98925.54;;;14.24;36.19
73242;BME280;65659;49.234;-2.094;2024-03-08T11:15:43;98923.78;;;14.08;36.24
73242;BME280;65659;49.234;-2.094;2024-03-08T11:18:10;98919.13;;;14.34;36.58
73242;BME280;65659;49.234;-2.094;2024-03-08T11:20:35;98912.28;;;13.25;36.18
73242;BME280;65659;49.234;-2.094;2024-03-08T11:23:05;98912.58;;;14.66;35.79
73242;BME280;65659;49.234;-2.094;2024-03-08T11:25:40;98909.19;;;13.32;35.90
73242;BME280;65659;49.234;-2.094;2024-03-08T11:30:21;98901.85;;;13.38;35.45
73242;BME280;65659;49.234;-2.094;2024-03-08T11:32:47;98903.37;;;13.79;35.29
73242;BME280;65659;49.234;-2.094;2024-03-08T11:35:18;98897.17;;;13.85;35.39
73242;BME280;65659;49.234;-2.094;2024-03-08T11:37:35;98888.93;;;13.69;35.31
73242;BME280;65659;49.234;-2.094;2024-03-08T11:40:08;98881.41;;;14.41;34.98
73242;BME280;65659;49.234;-2.094;2024-03-08T11:42:24;98882.50;;;14.44;35.66
73242;BME280;65659;49.234;-2.094;2024-03-08T11:44:59;98874.03;;;13.89;35.62
73242;BME280;65659;49.234;-2.094;2024-03-08T11:47:16;98861.09;;;13.85;35.71
73242;BME280;65659;49.234;-2.094;2024-03-08T11:49:39;98861.10;;;14.06;35.83
73242;BME280;65659;49.234;-2.094;2024-03-08T11:52:12;98861.15;;;14.45;35.70
73242;BME280;65659;49.234;-2.094;2024-03-08T11:54:30;98861.22;;;14.30;35.89
73242;BME280;65659;49.234;-2.094;2024-03-08T11:57:19;98860.61;;;14.48;35.73
73242;BME280;65659;49.234;-2.094;2024-03-08T11:59:22;98863.08;;;14.12;35.53
73242;BME280;65659;49.234;-2.094;2024-03-08T12:02:00;98859.72;;;14.21;35.27
73242;BME280;65659;49.234;-2.094;2024-03-08T12:04:13;98859.44;;;14.51;35.24
73242;BME280;65659;49.234;-2.094;2024-03-08T12:06:40;98858.38;;;14.48;35.00
73242;BME280;65659;49.234;-2.094;2024-03-08T12:09:04;98859.27;;;14.86;34.80
73242;BME280;65659;49.234;-2.094;2024-03-08T12:11:28;98859.02;;;14.95;34.76
73242;BME280;65659;49.234;-2.094;2024-03-08T12:13:54;98851.70;;;15.06;34.70
73242;BME280;65659;49.234;-2.094;2024-03-08T12:16:19;98846.84;;;15.17;34.75
73242;BME280;65659;49.234;-2.094;2024-03-08T12:18:45;98845.64;;;14.95;34.80
73242;BME280;65659;49.234;-2.094;2024-03-08T12:21:11;98844.81;;;15.07;34.60
73242;BME280;65659;49.234;-2.094;2024-03-08T12:23:35;98845.30;;;14.67;34.66
73242;BME280;65659;49.234;-2.094;2024-03-08T12:26:10;98839.10;;;14.97;34.71
73242;BME280;65659;49.234;-2.094;2024-03-08T12:28:28;98831.59;;;14.97;34.42
73242;BME280;65659;49.234;-2.094;2024-03-08T12:30:54;98824.74;;;15.12;34.17
73242;BME280;65659;49.234;-2.094;2024-03-08T12:33:17;98825.03;;;15.11;34.46
73242;BME280;65659;49.234;-2.094;2024-03-08T12:35:51;98823.64;;;15.23;34.40
73242;BME280;65659;49.234;-2.094;2024-03-08T12:38:10;98816.20;;;14.98;34.61
73242;BME280;65659;49.234;-2.094;2024-03-08T12:40:35;98816.29;;;14.80;34.63
73242;BME280;65659;49.234;-2.094;2024-03-08T12:43:01;98811.16;;;15.25;34.60
73242;BME280;65659;49.234;-2.094;2024-03-08T12:45:27;98805.34;;;15.03;34.63
73242;BME280;65659;49.234;-2.094;2024-03-08T12:47:51;98798.61;;;15.22;34.42
73242;BME280;65659;49.234;-2.094;2024-03-08T12:50:18;98801.48;;;15.08;34.44
73242;BME280;65659;49.234;-2.094;2024-03-08T12:52:43;98792.59;;;15.23;34.23
73242;BME280;65659;49.234;-2.094;2024-03-08T12:55:09;98785.41;;;15.07;34.40
73242;BME280;65659;49.234;-2.094;2024-03-08T12:57:35;98784.73;;;14.99;34.65
73242;BME280;65659;49.234;-2.094;2024-03-08T13:00:00;98781.68;;;15.24;34.74
73242;BME280;65659;49.234;-2.094;2024-03-08T13:02:25;98776.63;;;14.96;34.86
73242;BME280;65659;49.234;-2.094;2024-03-08T13:04:56;98772.51;;;15.46;34.69
73242;BME280;65659;49.234;-2.094;2024-03-08T13:07:16;98765.47;;;15.28;34.62